sensor_id;sensor_type;location;lat;lon;timestamp;pressure;altitude;pressure_sealevel;temperature;humidity
62057;BME280;48016;50.284;18.860;2023-07-28T00:01:52;97403.48;;;17.35;53.46
62057;BME280;48016;50.284;18.860;2023-07-28T00:04:19;97403.19;;;17.35;53.59
62057;BME280;48016;50.284;18.860;2023-07-28T00:06:46;97399.21;;;17.36;53.51
62057;BME280;48016;50.284;18.860;2023-07-28T00:09:12;97398.22;;;17.36;53.61
62057;BME280;48016;50.284;18.860;2023-07-28T00:11:39;97399.02;;;17.36;53.60
62057;BME280;48016;50.284;18.860;2023-07-28T00:14:05;97396.36;;;17.36;53.62
62057;BME280;48016;50.284;18.860;2023-07-28T00:16:32;97396.64;;;17.35;53.77
62057;BME280;48016;50.284;18.860;2023-07-28T00:18:58;97394.71;;;17.34;53.96
62057;BME280;48016;50.284;18.860;2023-07-28T00:21:26;97390.21;;;17.35;53.99
62057;BME280;48016;50.284;18.860;2023-07-28T00:23:53;97391.52;;;17.35;54.06
62057;BME280;48016;50.284;18.860;2023-07-28T00:26:20;97389.09;;;17.34;54.28
62057;BME280;48016;50.284;18.860;2023-07-28T00:28:46;97388.42;;;17.33;54.22
62057;BME280;48016;50.284;18.860;2023-07-28T00:31:13;97385.48;;;17.32;54.38
62057;BME280;48016;50.284;18.860;2023-07-28T00:33:39;97387.86;;;17.31;54.43
62057;BME280;48016;50.284;18.860;2023-07-28T00:36:06;97391.86;;;17.31;54.57
62057;BME280;48016;50.284;18.860;2023-07-28T00:38:33;97383.27;;;17.30;54.60
62057;BME280;48016;50.284;18.860;2023-07-28T00:40:59;97381.08;;;17.30;54.80
62057;BME280;48016;50.284;18.860;2023-07-28T00:43:26;97374.95;;;17.31;54.70
62057;BME280;48016;50.284;18.860;2023-07-28T00:45:53;97372.57;;;17.30;55.22
62057;BME280;48016;50.284;18.860;2023-07-28T00:48:20;97373.11;;;17.28;55.27
62057;BME280;48016;50.284;18.860;2023-07-28T00:50:48;97373.11;;;17.28;55.72
62057;BME280;48016;50.284;18.860;2023-07-28T00:53:16;97378.50;;;17.27;56.16
62057;BME280;48016;50.284;18.860;2023-07-28T00:55:42;97381.81;;;17.26;56.28
62057;BME280;48016;50.284;18.860;2023-07-28T00:58:09;97384.79;;;17.24;56.58
62057;BME280;48016;50.284;18.860;2023-07-28T01:00:36;97380.50;;;17.23;57.11
62057;BME280;48016;50.284;18.860;2023-07-28T01:03:03;97378.03;;;17.21;57.29
62057;BME280;48016;50.284;18.860;2023-07-28T01:05:55;97383.39;;;17.21;57.48
62057;BME280;48016;50.284;18.860;2023-07-28T01:09:03;97379.41;;;17.21;57.61
62057;BME280;48016;50.284;18.860;2023-07-28T01:11:31;97373.43;;;17.20;57.75
62057;BME280;48016;50.284;18.860;2023-07-28T01:13:57;97374.20;;;17.19;57.74
62057;BME280;48016;50.284;18.860;2023-07-28T01:16:24;97370.39;;;17.18;58.19
62057;BME280;48016;50.284;18.860;2023-07-28T01:18:50;97362.37;;;17.16;57.96
62057;BME280;48016;50.284;18.860;2023-07-28T01:21:21;97359.42;;;17.15;58.09
62057;BME280;48016;50.284;18.860;2023-07-28T01:24:01;97357.75;;;17.14;58.43
62057;BME280;48016;50.284;18.860;2023-07-28T01:26:36;97353.40;;;17.13;58.70
62057;BME280;48016;50.284;18.860;2023-07-28T01:29:04;97351.67;;;17.13;58.68
62057;BME280;48016;50.284;18.860;2023-07-28T01:31:32;97350.64;;;17.12;58.66
62057;BME280;48016;50.284;18.860;2023-07-28T01:33:58;97350.77;;;17.12;58.56
62057;BME280;48016;50.284;18.860;2023-07-28T01:36:25;97353.02;;;17.11;58.68
62057;BME280;48016;50.284;18.860;2023-07-28T01:38:52;97353.38;;;17.11;58.85
62057;BME280;48016;50.284;18.860;2023-07-28T01:41:18;97353.34;;;17.12;58.94
62057;BME280;48016;50.284;18.860;2023-07-28T01:43:45;97351.92;;;17.12;58.97
62057;BME280;48016;50.284;18.860;2023-07-28T01:46:11;97354.66;;;17.11;59.07
62057;BME280;48016;50.284;18.860;2023-07-28T01:48:38;97346.28;;;17.11;59.02
62057;BME280;48016;50.284;18.860;2023-07-28T01:51:04;97342.84;;;17.11;59.04
62057;BME280;48016;50.284;18.860;2023-07-28T01:53:31;97343.00;;;17.11;59.18
62057;BME280;48016;50.284;18.860;2023-07-28T01:55:58;97336.42;;;17.12;59.36
62057;BME280;48016;50.284;18.860;2023-07-28T01:58:24;97335.70;;;17.12;59.34
62057;BME280;48016;50.284;18.860;2023-07-28T02:00:51;97333.98;;;17.11;59.40
62057;BME280;48016;50.284;18.860;2023-07-28T02:03:17;97330.23;;;17.12;59.27
62057;BME280;48016;50.284;18.860;2023-07-28T02:05:44;97320.94;;;17.11;59.41
62057;BME280;48016;50.284;18.860;2023-07-28T02:08:11;97320.64;;;17.11;59.50
62057;BME280;48016;50.284;18.860;2023-07-28T02:10:37;97322.98;;;17.11;59.55
62057;BME280;48016;50.284;18.860;2023-07-28T02:13:04;97317.00;;;17.12;59.58
62057;BME280;48016;50.284;18.860;2023-07-28T02:15:30;97319.28;;;17.13;59.88
62057;BME280;48016;50.284;18.860;2023-07-28T02:17:57;97322.76;;;17.12;59.85
62057;BME280;48016;50.284;18.860;2023-07-28T02:20:24;97319.06;;;17.11;59.81
62057;BME280;48016;50.284;18.860;2023-07-28T02:22:50;97317.98;;;17.11;59.92
62057;BME280;48016;50.284;18.860;2023-07-28T02:25:17;97313.86;;;17.12;59.94
62057;BME280;48016;50.284;18.860;2023-07-28T02:27:43;97315.95;;;17.11;60.29
62057;BME280;48016;50.284;18.860;2023-07-28T02:30:10;97313.92;;;17.11;60.46
62057;BME280;48016;50.284;18.860;2023-07-28T02:32:37;97319.25;;;17.10;60.52
62057;BME280;48016;50.284;18.860;2023-07-28T02:35:04;97315.38;;;17.09;60.64
62057;BME280;48016;50.284;18.860;2023-07-28T02:37:30;97316.98;;;17.08;60.64
62057;BME280;48016;50.284;18.860;2023-07-28T02:39:57;97317.95;;;17.07;60.79
62057;BME280;48016;50.284;18.860;2023-07-28T02:42:23;97312.99;;;17.08;60.46
62057;BME280;48016;50.284;18.860;2023-07-28T02:44:51;97314.98;;;17.09;60.67
62057;BME280;48016;50.284;18.860;2023-07-28T02:47:18;97320.93;;;17.09;60.60
62057;BME280;48016;50.284;18.860;2023-07-28T02:49:46;97317.75;;;17.10;60.70
62057;BME280;48016;50.284;18.860;2023-07-28T02:52:13;97312.91;;;17.10;60.54
62057;BME280;48016;50.284;18.860;2023-07-28T02:54:40;97315.58;;;17.10;60.78
62057;BME280;48016;50.284;18.860;2023-07-28T02:57:06;97311.04;;;17.09;60.64
62057;BME280;48016;50.284;18.860;2023-07-28T02:59:33;97309.13;;;17.09;60.82
62057;BME280;48016;50.284;18.860;2023-07-28T03:02:00;97307.14;;;17.08;60.75
62057;BME280;48016;50.284;18.860;2023-07-28T03:04:27;97302.23;;;17.06;60.78
62057;BME280;48016;50.284;18.860;2023-07-28T03:06:53;97305.09;;;17.04;60.98
62057;BME280;48016;50.284;18.860;2023-07-28T03:09:20;97306.50;;;17.03;61.07
62057;BME280;48016;50.284;18.860;2023-07-28T03:11:46;97300.66;;;17.01;61.49
62057;BME280;48016;50.284;18.860;2023-07-28T03:14:13;97297.83;;;16.99;61.20
62057;BME280;48016;50.284;18.860;2023-07-28T03:16:42;97296.92;;;16.96;61.43
62057;BME280;48016;50.284;18.860;2023-07-28T03:19:09;97294.69;;;16.95;61.53
62057;BME280;48016;50.284;18.860;2023-07-28T03:21:35;97287.59;;;16.93;61.52
62057;BME280;48016;50.284;18.860;2023-07-28T03:24:02;97293.88;;;16.91;61.57
62057;BME280;48016;50.284;18.860;2023-07-28T03:26:29;97293.48;;;16.89;61.59
62057;BME280;48016;50.284;18.860;2023-07-28T03:28:55;97294.65;;;16.87;61.60
62057;BME280;48016;50.284;18.860;2023-07-28T03:31:22;97298.97;;;16.86;61.58
62057;BME280;48016;50.284;18.860;2023-07-28T03:33:48;97295.83;;;16.86;61.75
62057;BME280;48016;50.284;18.860;2023-07-28T03:36:15;97300.90;;;16.86;61.74
62057;BME280;48016;50.284;18.860;2023-07-28T03:38:41;97302.00;;;16.86;61.76
62057;BME280;48016;50.284;18.860;2023-07-28T03:41:08;97302.76;;;16.86;62.00
62057;BME280;48016;50.284;18.860;2023-07-28T03:43:35;97301.67;;;16.85;61.84
62057;BME280;48016;50.284;18.860;2023-07-28T03:46:02;97304.73;;;16.86;62.08
62057;BME280;48016;50.284;18.860;2023-07-28T03:48:28;97304.43;;;16.86;62.02
62057;BME280;48016;50.284;18.860;2023-07-28T03:50:55;97301.27;;;16.87;62.25
62057;BME280;48016;50.284;18.860;2023-07-28T03:53:21;97301.55;;;16.88;62.27
62057;BME280;48016;50.284;18.860;2023-07-28T03:55:48;97289.92;;;16.88;62.43
62057;BME280;48016;50.284;18.860;2023-07-28T03:58:15;97290.57;;;16.88;62.80
62057;BME280;48016;50.284;18.860;2023-07-28T04:00:42;97289.53;;;16.86;62.89
62057;BME280;48016;50.284;18.860;2023-07-28T04:03:08;97288.45;;;16.88;63.00
62057;BME280;48016;50.284;18.860;2023-07-28T04:05:36;97288.58;;;16.89;63.24
62057;BME280;48016;50.284;18.860;2023-07-28T04:08:03;97282.73;;;16.91;63.22
62057;BME280;48016;50.284;18.860;2023-07-28T04:10:30;97283.73;;;16.92;63.35
62057;BME280;48016;50.284;18.860;2023-07-28T04:12:56;97280.23;;;16.94;63.66
62057;BME280;48016;50.284;18.860;2023-07-28T04:15:23;97281.11;;;16.97;63.41
62057;BME280;48016;50.284;18.860;2023-07-28T04:17:49;97276.79;;;16.99;63.49
62057;BME280;48016;50.284;18.860;2023-07-28T04:20:16;97275.58;;;17.02;63.43
62057;BME280;48016;50.284;18.860;2023-07-28T04:22:42;97270.01;;;17.03;63.47
62057;BME280;48016;50.284;18.860;2023-07-28T04:25:09;97270.59;;;17.05;63.43
62057;BME280;48016;50.284;18.860;2023-07-28T04:27:35;97271.13;;;17.09;63.29
62057;BME280;48016;50.284;18.860;2023-07-28T04:30:02;97264.74;;;17.11;63.28
62057;BME280;48016;50.284;18.860;2023-07-28T04:32:29;97262.84;;;17.10;63.21
62057;BME280;48016;50.284;18.860;2023-07-28T04:34:56;97256.14;;;17.10;63.26
62057;BME280;48016;50.284;18.860;2023-07-28T04:37:23;97256.52;;;17.10;63.25
62057;BME280;48016;50.284;18.860;2023-07-28T04:39:49;97254.98;;;17.10;63.48
62057;BME280;48016;50.284;18.860;2023-07-28T04:42:16;97256.77;;;17.10;63.40
62057;BME280;48016;50.284;18.860;2023-07-28T04:44:43;97256.64;;;17.11;63.47
62057;BME280;48016;50.284;18.860;2023-07-28T04:47:10;97258.12;;;17.13;63.60
62057;BME280;48016;50.284;18.860;2023-07-28T04:49:37;97258.37;;;17.11;63.93
62057;BME280;48016;50.284;18.860;2023-07-28T04:52:03;97251.63;;;17.14;63.93
62057;BME280;48016;50.284;18.860;2023-07-28T04:54:30;97250.09;;;17.16;64.16
62057;BME280;48016;50.284;18.860;2023-07-28T04:56:57;97245.52;;;17.17;64.20
62057;BME280;48016;50.284;18.860;2023-07-28T04:59:24;97248.19;;;17.20;64.34
62057;BME280;48016;50.284;18.860;2023-07-28T05:01:51;97262.04;;;17.22;64.30
62057;BME280;48016;50.284;18.860;2023-07-28T05:04:17;97260.27;;;17.24;64.55
62057;BME280;48016;50.284;18.860;2023-07-28T05:06:45;97257.43;;;17.26;64.83
62057;BME280;48016;50.284;18.860;2023-07-28T05:09:12;97259.59;;;17.25;65.18
62057;BME280;48016;50.284;18.860;2023-07-28T05:11:38;97259.96;;;17.27;65.37
62057;BME280;48016;50.284;18.860;2023-07-28T05:14:05;97268.67;;;17.28;65.87
62057;BME280;48016;50.284;18.860;2023-07-28T05:16:35;97263.23;;;17.27;66.49
62057;BME280;48016;50.284;18.860;2023-07-28T05:19:01;97263.05;;;17.28;66.69
62057;BME280;48016;50.284;18.860;2023-07-28T05:21:28;97267.48;;;17.29;66.78
62057;BME280;48016;50.284;18.860;2023-07-28T05:23:55;97271.63;;;17.29;66.75
62057;BME280;48016;50.284;18.860;2023-07-28T05:26:21;97275.20;;;17.27;66.98
62057;BME280;48016;50.284;18.860;2023-07-28T05:28:48;97275.71;;;17.25;66.86
62057;BME280;48016;50.284;18.860;2023-07-28T05:31:14;97269.41;;;17.23;66.93
62057;BME280;48016;50.284;18.860;2023-07-28T05:33:43;97264.49;;;17.23;67.08
62057;BME280;48016;50.284;18.860;2023-07-28T05:36:10;97260.23;;;17.26;67.36
62057;BME280;48016;50.284;18.860;2023-07-28T05:38:37;97257.86;;;17.27;67.74
62057;BME280;48016;50.284;18.860;2023-07-28T05:41:04;97257.19;;;17.33;68.02
62057;BME280;48016;50.284;18.860;2023-07-28T05:43:31;97261.87;;;17.38;68.45
62057;BME280;48016;50.284;18.860;2023-07-28T05:45:59;97262.20;;;17.35;68.55
62057;BME280;48016;50.284;18.860;2023-07-28T05:48:26;97263.64;;;17.29;69.06
62057;BME280;48016;50.284;18.860;2023-07-28T05:50:53;97258.63;;;17.26;69.32
62057;BME280;48016;50.284;18.860;2023-07-28T05:53:22;97259.75;;;17.25;69.63
62057;BME280;48016;50.284;18.860;2023-07-28T05:55:49;97259.48;;;17.25;69.99
62057;BME280;48016;50.284;18.860;2023-07-28T05:58:15;97259.34;;;17.21;70.05
62057;BME280;48016;50.284;18.860;2023-07-28T06:00:42;97257.46;;;17.19;70.46
62057;BME280;48016;50.284;18.860;2023-07-28T06:03:12;97257.64;;;17.16;70.70
62057;BME280;48016;50.284;18.860;2023-07-28T06:05:42;97262.30;;;17.15;70.77
62057;BME280;48016;50.284;18.860;2023-07-28T06:08:08;97266.39;;;17.16;71.06
62057;BME280;48016;50.284;18.860;2023-07-28T06:10:37;97268.45;;;17.17;71.17
62057;BME280;48016;50.284;18.860;2023-07-28T06:13:03;97275.91;;;17.18;71.37
62057;BME280;48016;50.284;18.860;2023-07-28T06:15:30;97274.64;;;17.17;71.76
62057;BME280;48016;50.284;18.860;2023-07-28T06:17:57;97276.52;;;17.20;71.89
62057;BME280;48016;50.284;18.860;2023-07-28T06:20:23;97281.23;;;17.19;72.25
62057;BME280;48016;50.284;18.860;2023-07-28T06:22:50;97282.66;;;17.14;72.40
62057;BME280;48016;50.284;18.860;2023-07-28T06:25:17;97283.08;;;17.09;72.91
62057;BME280;48016;50.284;18.860;2023-07-28T06:27:43;97286.98;;;17.02;73.07
62057;BME280;48016;50.284;18.860;2023-07-28T06:30:10;97285.77;;;16.95;73.65
62057;BME280;48016;50.284;18.860;2023-07-28T06:32:37;97291.43;;;16.90;73.67
62057;BME280;48016;50.284;18.860;2023-07-28T06:35:04;97299.48;;;16.84;74.21
62057;BME280;48016;50.284;18.860;2023-07-28T06:37:35;97299.39;;;16.80;74.75
62057;BME280;48016;50.284;18.860;2023-07-28T06:40:05;97298.30;;;16.74;74.97
62057;BME280;48016;50.284;18.860;2023-07-28T06:42:33;97303.36;;;16.74;75.42
62057;BME280;48016;50.284;18.860;2023-07-28T06:45:00;97303.88;;;16.76;75.57
62057;BME280;48016;50.284;18.860;2023-07-28T06:47:28;97301.95;;;16.76;75.75
62057;BME280;48016;50.284;18.860;2023-07-28T06:49:55;97302.09;;;16.75;75.97
62057;BME280;48016;50.284;18.860;2023-07-28T06:52:21;97305.84;;;16.73;76.13
62057;BME280;48016;50.284;18.860;2023-07-28T06:54:48;97306.44;;;16.73;76.35
62057;BME280;48016;50.284;18.860;2023-07-28T06:57:15;97306.92;;;16.69;76.60
62057;BME280;48016;50.284;18.860;2023-07-28T06:59:42;97305.38;;;16.67;76.86
62057;BME280;48016;50.284;18.860;2023-07-28T07:02:09;97303.22;;;16.64;77.08
62057;BME280;48016;50.284;18.860;2023-07-28T07:04:36;97302.52;;;16.64;77.66
62057;BME280;48016;50.284;18.860;2023-07-28T07:07:02;97306.36;;;16.64;77.75
62057;BME280;48016;50.284;18.860;2023-07-28T07:09:29;97305.66;;;16.65;77.86
62057;BME280;48016;50.284;18.860;2023-07-28T07:11:55;97308.98;;;16.62;78.20
62057;BME280;48016;50.284;18.860;2023-07-28T07:14:22;97312.80;;;16.59;78.45
62057;BME280;48016;50.284;18.860;2023-07-28T07:16:49;97313.27;;;16.59;78.61
62057;BME280;48016;50.284;18.860;2023-07-28T07:19:15;97314.36;;;16.59;78.77
62057;BME280;48016;50.284;18.860;2023-07-28T07:21:42;97316.86;;;16.57;79.13
62057;BME280;48016;50.284;18.860;2023-07-28T07:24:11;97318.07;;;16.57;79.38
62057;BME280;48016;50.284;18.860;2023-07-28T07:26:40;97319.10;;;16.58;79.40
62057;BME280;48016;50.284;18.860;2023-07-28T07:29:07;97319.52;;;16.59;79.78
62057;BME280;48016;50.284;18.860;2023-07-28T07:31:35;97322.31;;;16.62;79.88
62057;BME280;48016;50.284;18.860;2023-07-28T07:34:01;97322.59;;;16.68;79.49
62057;BME280;48016;50.284;18.860;2023-07-28T07:36:30;97318.20;;;16.72;79.63
62057;BME280;48016;50.284;18.860;2023-07-28T07:38:57;97321.92;;;16.79;80.11
62057;BME280;48016;50.284;18.860;2023-07-28T07:41:24;97326.44;;;16.87;80.28
62057;BME280;48016;50.284;18.860;2023-07-28T07:43:53;97325.10;;;16.98;80.13
62057;BME280;48016;50.284;18.860;2023-07-28T07:46:21;97324.44;;;17.11;80.39
62057;BME280;48016;50.284;18.860;2023-07-28T07:48:48;97319.29;;;17.23;80.23
62057;BME280;48016;50.284;18.860;2023-07-28T07:51:15;97316.42;;;17.34;80.15
62057;BME280;48016;50.284;18.860;2023-07-28T07:53:41;97317.38;;;17.44;80.18
62057;BME280;48016;50.284;18.860;2023-07-28T07:56:08;97323.27;;;17.53;80.14
62057;BME280;48016;50.284;18.860;2023-07-28T07:58:36;97321.74;;;17.65;80.10
62057;BME280;48016;50.284;18.860;2023-07-28T08:01:03;97326.27;;;17.74;80.02
62057;BME280;48016;50.284;18.860;2023-07-28T08:03:30;97329.45;;;17.84;79.85
62057;BME280;48016;50.284;18.860;2023-07-28T08:05:58;97330.93;;;17.95;79.74
62057;BME280;48016;50.284;18.860;2023-07-28T08:08:24;97330.21;;;18.06;79.67
62057;BME280;48016;50.284;18.860;2023-07-28T08:10:53;97332.79;;;18.14;79.67
62057;BME280;48016;50.284;18.860;2023-07-28T08:13:20;97332.11;;;18.20;79.70
62057;BME280;48016;50.284;18.860;2023-07-28T08:15:46;97330.67;;;18.24;79.42
62057;BME280;48016;50.284;18.860;2023-07-28T08:18:13;97331.55;;;18.29;79.43
62057;BME280;48016;50.284;18.860;2023-07-28T08:20:40;97332.02;;;18.37;79.32
62057;BME280;48016;50.284;18.860;2023-07-28T08:23:07;97329.14;;;18.41;79.19
62057;BME280;48016;50.284;18.860;2023-07-28T08:25:34;97335.09;;;18.49;79.07
62057;BME280;48016;50.284;18.860;2023-07-28T08:28:01;97331.61;;;18.56;78.86
62057;BME280;48016;50.284;18.860;2023-07-28T08:30:28;97333.21;;;18.61;78.78
62057;BME280;48016;50.284;18.860;2023-07-28T08:32:54;97328.92;;;18.69;78.93
62057;BME280;48016;50.284;18.860;2023-07-28T08:35:21;97331.25;;;18.78;78.62
62057;BME280;48016;50.284;18.860;2023-07-28T08:37:47;97341.42;;;18.82;78.44
62057;BME280;48016;50.284;18.860;2023-07-28T08:40:14;97342.45;;;18.80;78.46
62057;BME280;48016;50.284;18.860;2023-07-28T08:42:41;97337.26;;;18.80;78.41
62057;BME280;48016;50.284;18.860;2023-07-28T08:45:08;97334.65;;;18.81;78.38
62057;BME280;48016;50.284;18.860;2023-07-28T08:47:35;97335.52;;;18.81;78.11
62057;BME280;48016;50.284;18.860;2023-07-28T08:50:02;97336.19;;;18.80;78.22
62057;BME280;48016;50.284;18.860;2023-07-28T08:52:29;97334.65;;;18.85;77.90
62057;BME280;48016;50.284;18.860;2023-07-28T08:54:56;97339.13;;;18.85;77.82
62057;BME280;48016;50.284;18.860;2023-07-28T08:57:23;97339.59;;;18.87;77.79
62057;BME280;48016;50.284;18.860;2023-07-28T08:59:50;97337.52;;;18.94;77.59
62057;BME280;48016;50.284;18.860;2023-07-28T09:02:18;97332.00;;;19.04;77.35
62057;BME280;48016;50.284;18.860;2023-07-28T09:04:47;97337.44;;;19.13;77.25
62057;BME280;48016;50.284;18.860;2023-07-28T09:07:14;97331.61;;;19.18;76.96
62057;BME280;48016;50.284;18.860;2023-07-28T09:09:41;97331.01;;;19.28;76.79
62057;BME280;48016;50.284;18.860;2023-07-28T09:12:08;97334.14;;;19.36;76.47
62057;BME280;48016;50.284;18.860;2023-07-28T09:14:36;97341.36;;;19.45;76.20
62057;BME280;48016;50.284;18.860;2023-07-28T09:17:11;97344.79;;;19.56;76.13
62057;BME280;48016;50.284;18.860;2023-07-28T09:19:52;97341.76;;;19.69;75.99
62057;BME280;48016;50.284;18.860;2023-07-28T09:22:19;97341.02;;;19.83;75.67
62057;BME280;48016;50.284;18.860;2023-07-28T09:24:47;97335.83;;;19.99;75.35
62057;BME280;48016;50.284;18.860;2023-07-28T09:27:22;97336.67;;;20.19;75.02
62057;BME280;48016;50.284;18.860;2023-07-28T09:29:54;97333.25;;;20.39;74.43
62057;BME280;48016;50.284;18.860;2023-07-28T09:32:29;97330.01;;;20.62;73.77
62057;BME280;48016;50.284;18.860;2023-07-28T09:35:10;97333.27;;;20.76;73.38
62057;BME280;48016;50.284;18.860;2023-07-28T09:37:39;97340.43;;;20.92;73.01
62057;BME280;48016;50.284;18.860;2023-07-28T09:40:11;97346.33;;;21.05;72.71
62057;BME280;48016;50.284;18.860;2023-07-28T09:42:39;97351.27;;;21.21;72.24
62057;BME280;48016;50.284;18.860;2023-07-28T09:45:07;97348.81;;;21.34;71.90
62057;BME280;48016;50.284;18.860;2023-07-28T09:47:35;97347.52;;;21.45;71.02
62057;BME280;48016;50.284;18.860;2023-07-28T09:50:05;97343.35;;;21.53;70.71
62057;BME280;48016;50.284;18.860;2023-07-28T09:52:43;97339.53;;;21.66;70.57
62057;BME280;48016;50.284;18.860;2023-07-28T09:55:11;97339.48;;;21.79;69.68
62057;BME280;48016;50.284;18.860;2023-07-28T10:00:12;97345.18;;;21.92;69.04
62057;BME280;48016;50.284;18.860;2023-07-28T10:02:40;97339.27;;;21.97;68.71
62057;BME280;48016;50.284;18.860;2023-07-28T10:05:07;97337.42;;;22.01;68.15
62057;BME280;48016;50.284;18.860;2023-07-28T10:07:34;97334.71;;;22.03;67.72
62057;BME280;48016;50.284;18.860;2023-07-28T10:10:04;97334.87;;;22.00;67.67
62057;BME280;48016;50.284;18.860;2023-07-28T10:12:46;97330.71;;;22.07;67.78
62057;BME280;48016;50.284;18.860;2023-07-28T10:15:16;97334.09;;;22.09;67.21
62057;BME280;48016;50.284;18.860;2023-07-28T10:17:45;97335.23;;;22.05;67.09
62057;BME280;48016;50.284;18.860;2023-07-28T10:20:40;97333.99;;;22.03;66.97
62057;BME280;48016;50.284;18.860;2023-07-28T10:23:13;97337.73;;;22.10;66.89
62057;BME280;48016;50.284;18.860;2023-07-28T10:25:41;97342.39;;;22.17;66.64
62057;BME280;48016;50.284;18.860;2023-07-28T10:28:34;97345.48;;;22.26;66.61
62057;BME280;48016;50.284;18.860;2023-07-28T10:31:05;97355.27;;;22.43;66.67
62057;BME280;48016;50.284;18.860;2023-07-28T10:38:42;97365.73;;;22.66;65.31
62057;BME280;48016;50.284;18.860;2023-07-28T10:41:15;97367.45;;;22.66;65.35
62057;BME280;48016;50.284;18.860;2023-07-28T10:43:43;97367.75;;;22.68;65.28
62057;BME280;48016;50.284;18.860;2023-07-28T10:46:14;97366.84;;;22.73;65.28
62057;BME280;48016;50.284;18.860;2023-07-28T10:48:42;97364.91;;;22.78;64.98
62057;BME280;48016;50.284;18.860;2023-07-28T10:51:11;97359.82;;;22.86;64.72
62057;BME280;48016;50.284;18.860;2023-07-28T10:53:38;97352.71;;;22.94;64.61
62057;BME280;48016;50.284;18.860;2023-07-28T10:56:05;97351.21;;;23.01;64.33
62057;BME280;48016;50.284;18.860;2023-07-28T10:58:33;97349.60;;;23.14;64.63
62057;BME280;48016;50.284;18.860;2023-07-28T11:01:02;97349.16;;;23.30;64.62
62057;BME280;48016;50.284;18.860;2023-07-28T11:03:29;97348.89;;;23.43;64.13
62057;BME280;48016;50.284;18.860;2023-07-28T11:05:55;97352.58;;;23.46;64.11
62057;BME280;48016;50.284;18.860;2023-07-28T11:08:23;97347.70;;;23.46;63.77
62057;BME280;48016;50.284;18.860;2023-07-28T11:10:49;97349.13;;;23.55;63.65
62057;BME280;48016;50.284;18.860;2023-07-28T11:13:16;97346.08;;;23.64;63.59
62057;BME280;48016;50.284;18.860;2023-07-28T11:15:43;97345.27;;;23.63;63.35
62057;BME280;48016;50.284;18.860;2023-07-28T11:18:10;97351.16;;;23.65;63.36
62057;BME280;48016;50.284;18.860;2023-07-28T11:20:37;97345.67;;;23.59;63.42
62057;BME280;48016;50.284;18.860;2023-07-28T11:23:04;97346.56;;;23.52;63.06
62057;BME280;48016;50.284;18.860;2023-07-28T11:25:32;97350.79;;;23.44;63.16
62057;BME280;48016;50.284;18.860;2023-07-28T11:28:03;97358.73;;;23.47;62.79
62057;BME280;48016;50.284;18.860;2023-07-28T11:30:32;97355.27;;;23.51;62.64
62057;BME280;48016;50.284;18.860;2023-07-28T11:33:03;97356.33;;;23.56;62.61
62057;BME280;48016;50.284;18.860;2023-07-28T11:35:29;97350.27;;;23.64;62.48
62057;BME280;48016;50.284;18.860;2023-07-28T11:37:56;97356.82;;;23.72;62.26
62057;BME280;48016;50.284;18.860;2023-07-28T11:40:23;97365.36;;;23.81;62.31
62057;BME280;48016;50.284;18.860;2023-07-28T11:42:54;97362.03;;;23.93;61.96
62057;BME280;48016;50.284;18.860;2023-07-28T11:45:21;97368.17;;;24.05;61.56
62057;BME280;48016;50.284;18.860;2023-07-28T11:47:55;97362.89;;;24.05;61.70
62057;BME280;48016;50.284;18.860;2023-07-28T11:50:43;97366.13;;;24.06;61.74
62057;BME280;48016;50.284;18.860;2023-07-28T11:53:11;97368.43;;;24.10;61.50
62057;BME280;48016;50.284;18.860;2023-07-28T11:55:39;97366.06;;;24.10;61.79
62057;BME280;48016;50.284;18.860;2023-07-28T11:58:06;97362.26;;;24.05;61.59
62057;BME280;48016;50.284;18.860;2023-07-28T12:00:35;97361.61;;;23.95;61.27
62057;BME280;48016;50.284;18.860;2023-07-28T12:03:09;97366.23;;;23.89;61.36
62057;BME280;48016;50.284;18.860;2023-07-28T12:05:40;97363.73;;;23.82;61.26
62057;BME280;48016;50.284;18.860;2023-07-28T12:08:07;97359.43;;;23.72;60.92
62057;BME280;48016;50.284;18.860;2023-07-28T12:10:34;97356.58;;;23.61;60.61
62057;BME280;48016;50.284;18.860;2023-07-28T12:13:05;97356.05;;;23.58;61.09
62057;BME280;48016;50.284;18.860;2023-07-28T12:15:40;97357.43;;;23.60;61.58
62057;BME280;48016;50.284;18.860;2023-07-28T12:18:15;97349.60;;;23.59;61.36
62057;BME280;48016;50.284;18.860;2023-07-28T12:20:48;97349.59;;;23.69;61.10
62057;BME280;48016;50.284;18.860;2023-07-28T12:23:20;97347.67;;;23.83;61.23
62057;BME280;48016;50.284;18.860;2023-07-28T12:25:47;97350.41;;;24.03;61.49
62057;BME280;48016;50.284;18.860;2023-07-28T12:28:14;97346.25;;;24.13;61.45
62057;BME280;48016;50.284;18.860;2023-07-28T12:30:41;97342.73;;;24.15;61.09
62057;BME280;48016;50.284;18.860;2023-07-28T12:33:09;97342.45;;;24.13;61.01
62057;BME280;48016;50.284;18.860;2023-07-28T12:35:36;97343.66;;;24.06;60.92
62057;BME280;48016;50.284;18.860;2023-07-28T12:38:06;97348.58;;;23.94;60.52
62057;BME280;48016;50.284;18.860;2023-07-28T12:40:34;97352.33;;;23.88;60.38
62057;BME280;48016;50.284;18.860;2023-07-28T12:43:02;97353.63;;;23.78;60.05
62057;BME280;48016;50.284;18.860;2023-07-28T12:45:29;97358.43;;;23.67;60.07
62057;BME280;48016;50.284;18.860;2023-07-28T12:47:55;97360.61;;;23.65;60.24
62057;BME280;48016;50.284;18.860;2023-07-28T12:50:23;97358.66;;;23.62;60.38
62057;BME280;48016;50.284;18.860;2023-07-28T12:52:50;97354.24;;;23.59;60.37
62057;BME280;48016;50.284;18.860;2023-07-28T12:55:17;97362.16;;;23.56;60.87
62057;BME280;48016;50.284;18.860;2023-07-28T12:57:46;97356.77;;;23.59;61.38
62057;BME280;48016;50.284;18.860;2023-07-28T13:00:15;97353.73;;;23.57;61.67
62057;BME280;48016;50.284;18.860;2023-07-28T13:02:43;97348.29;;;23.60;61.76